createdAt,value
2023-01-30T00:00:32.316Z,22.67
2023-01-30T00:03:04.080Z,24.27
2023-01-30T00:05:35.728Z,24.93
2023-01-30T00:08:07.694Z,29.47
2023-01-30T00:10:39.547Z,21.73
2023-01-30T00:13:12.227Z,18.63
2023-01-30T00:15:44.530Z,29.43
2023-01-30T00:18:16.216Z,22.13
2023-01-30T00:20:47.988Z,22.37
2023-01-30T00:23:19.765Z,25.43
2023-01-30T00:25:51.860Z,24.80
2023-01-30T00:28:24.671Z,25.60
2023-01-30T00:30:57.168Z,27.13
2023-01-30T00:33:29.504Z,31.70
2023-01-30T00:36:01.843Z,20.77
2023-01-30T00:38:33.808Z,30.40
2023-01-30T00:41:05.627Z,25.13
2023-01-30T00:44:12.784Z,23.53
2023-01-30T00:47:03.142Z,24.93
2023-01-30T00:49:35.990Z,25.67
2023-01-30T00:52:07.823Z,26.93
2023-01-30T00:54:39.514Z,22.10
2023-01-30T00:57:11.373Z,24.23
2023-01-30T00:59:43.094Z,24.33
2023-01-30T01:02:14.806Z,31.00
2023-01-30T01:04:46.527Z,25.30
2023-01-30T01:07:18.617Z,27.87
2023-01-30T01:09:51.190Z,27.67
2023-01-30T01:12:23.113Z,25.30
2023-01-30T01:14:54.884Z,23.50
2023-01-30T01:17:26.827Z,23.20
2023-01-30T01:19:58.598Z,30.40
2023-01-30T01:22:30.424Z,20.13
2023-01-30T01:25:02.798Z,21.30
2023-01-30T01:27:34.513Z,27.30
2023-01-30T01:30:07.052Z,21.97
2023-01-30T01:32:38.807Z,23.90
2023-01-30T01:35:10.741Z,20.20
2023-01-30T01:37:42.475Z,26.33
2023-01-30T01:40:38.604Z,25.67
2023-01-30T01:43:22.265Z,20.87
2023-01-30T01:46:00.731Z,23.33
2023-01-30T01:48:41.663Z,25.37
2023-01-30T01:51:18.795Z,24.57
2023-01-30T01:53:56.620Z,28.20
2023-01-30T01:56:29.298Z,25.83
2023-01-30T01:59:11.798Z,24.77
2023-01-30T02:01:43.536Z,19.67
2023-01-30T02:04:35.527Z,24.50
2023-01-30T02:07:08.627Z,20.83
2023-01-30T02:09:40.471Z,26.23
2023-01-30T02:12:14.893Z,24.13
2023-01-30T02:14:48.964Z,25.70
2023-01-30T02:17:20.865Z,22.10
2023-01-30T02:20:16.375Z,22.60
2023-01-30T02:22:57.989Z,25.92
2023-01-30T02:25:38.746Z,24.23
2023-01-30T02:28:19.015Z,26.27
2023-01-30T02:31:08.108Z,21.60
2023-01-30T02:33:48.800Z,27.07
2023-01-30T02:36:42.547Z,20.60
2023-01-30T02:39:22.836Z,24.97
2023-01-30T02:42:42.121Z,26.73
2023-01-30T02:45:31.632Z,27.63
2023-01-30T02:48:06.532Z,18.90
2023-01-30T02:50:44.450Z,19.47
2023-01-30T02:53:16.228Z,24.50
2023-01-30T02:55:48.041Z,26.83
2023-01-30T02:58:23.160Z,29.57
2023-01-30T03:01:11.403Z,23.87
2023-01-30T03:03:54.762Z,26.13
2023-01-30T03:06:42.596Z,21.93
2023-01-30T03:09:53.941Z,21.47
2023-01-30T03:13:06.860Z,22.73
2023-01-30T03:16:05.253Z,20.77
2023-01-30T03:18:37.280Z,25.53
2023-01-30T03:21:09.736Z,21.00
2023-01-30T03:23:41.740Z,22.70
2023-01-30T03:26:18.654Z,22.43
2023-01-30T03:28:51.773Z,19.37
2023-01-30T03:31:23.700Z,25.10
2023-01-30T03:33:55.443Z,24.80
2023-01-30T03:36:27.358Z,23.30
2023-01-30T03:38:59.314Z,21.53
2023-01-30T03:41:31.292Z,20.20
2023-01-30T03:44:03.132Z,20.67
2023-01-30T03:46:34.869Z,21.17
2023-01-30T03:49:06.609Z,24.40
2023-01-30T03:51:38.474Z,23.20
2023-01-30T03:54:10.142Z,24.67
2023-01-30T03:56:41.987Z,22.90
2023-01-30T03:59:13.727Z,18.33
2023-01-30T04:01:45.435Z,17.50
2023-01-30T04:04:17.192Z,24.90
2023-01-30T04:06:49.027Z,16.87
2023-01-30T04:09:20.858Z,17.90
2023-01-30T04:11:52.793Z,20.33
2023-01-30T04:14:24.507Z,14.70
2023-01-30T04:16:56.302Z,18.63
2023-01-30T04:19:28.137Z,18.17
2023-01-30T04:21:59.808Z,27.03
2023-01-30T04:24:31.487Z,19.50
2023-01-30T04:27:03.285Z,17.50
2023-01-30T04:29:35.251Z,20.43
2023-01-30T04:32:06.903Z,18.47
2023-01-30T04:34:38.571Z,20.47
2023-01-30T04:37:10.323Z,22.67
2023-01-30T04:39:42.147Z,18.50
2023-01-30T04:42:13.900Z,24.63
2023-01-30T04:44:45.751Z,18.93
2023-01-30T04:47:17.710Z,17.43
2023-01-30T04:49:49.653Z,18.30
2023-01-30T04:52:21.435Z,16.17
2023-01-30T04:54:53.297Z,21.87
2023-01-30T04:57:24.965Z,20.33
2023-01-30T04:59:56.779Z,17.13
2023-01-30T05:02:28.458Z,16.53
2023-01-30T05:05:00.248Z,27.27
2023-01-30T05:07:32.037Z,22.95
2023-01-30T05:10:04.058Z,21.53
2023-01-30T05:12:35.779Z,23.07
2023-01-30T05:15:08.079Z,16.70
2023-01-30T05:17:41.960Z,19.83
2023-01-30T05:20:14.877Z,14.83
2023-01-30T05:22:46.560Z,21.43
2023-01-30T05:25:18.653Z,16.70
2023-01-30T05:27:50.610Z,16.87
2023-01-30T05:30:22.501Z,12.57
2023-01-30T05:32:54.207Z,18.27
2023-01-30T05:35:25.862Z,13.47
2023-01-30T05:37:59.405Z,15.40
2023-01-30T05:40:31.223Z,18.83
2023-01-30T05:43:03.049Z,17.20
2023-01-30T05:45:34.734Z,18.80
2023-01-30T05:48:06.720Z,19.00
2023-01-30T05:50:38.463Z,19.93
2023-01-30T05:53:10.286Z,17.03
2023-01-30T05:55:43.742Z,17.50
2023-01-30T05:58:15.500Z,20.03
2023-01-30T06:00:47.221Z,10.27
2023-01-30T06:03:19.291Z,21.52
2023-01-30T06:05:50.990Z,16.27
2023-01-30T06:08:23.271Z,17.57
2023-01-30T06:10:55.004Z,15.20
2023-01-30T06:13:26.719Z,19.93
2023-01-30T06:15:58.523Z,20.77
2023-01-30T06:18:30.347Z,20.70
2023-01-30T06:21:02.117Z,18.33
2023-01-30T06:23:34.637Z,18.30
2023-01-30T06:26:09.156Z,18.90
2023-01-30T06:28:41.123Z,19.40
2023-01-30T06:31:12.946Z,15.83
2023-01-30T06:33:44.644Z,15.83
2023-01-30T06:36:16.381Z,19.77
2023-01-30T06:38:48.736Z,13.70
2023-01-30T06:41:20.577Z,20.23
2023-01-30T06:43:52.368Z,21.27
2023-01-30T06:46:24.136Z,17.50
2023-01-30T06:48:55.934Z,21.37
2023-01-30T06:51:27.704Z,19.03
2023-01-30T06:53:59.647Z,19.23
2023-01-30T06:56:31.437Z,16.65
2023-01-30T06:59:03.283Z,13.20
2023-01-30T07:01:35.110Z,15.73
2023-01-30T07:04:06.913Z,18.83
2023-01-30T07:06:40.076Z,18.40
2023-01-30T07:09:11.921Z,17.00
2023-01-30T07:11:43.756Z,18.10
2023-01-30T07:14:15.457Z,19.67
2023-01-30T07:16:47.244Z,22.57
2023-01-30T07:19:18.941Z,19.00
2023-01-30T07:21:50.682Z,14.73
2023-01-30T07:24:22.362Z,12.50
2023-01-30T07:26:54.192Z,18.80
2023-01-30T07:29:25.880Z,16.67
2023-01-30T07:31:57.685Z,18.20
2023-01-30T07:34:29.982Z,14.80
2023-01-30T07:37:01.667Z,15.33
2023-01-30T07:39:33.476Z,14.13
2023-01-30T07:42:05.841Z,10.90
2023-01-30T07:44:37.601Z,11.90
2023-01-30T07:47:09.418Z,16.53
2023-01-30T07:49:41.203Z,15.17
2023-01-30T07:52:12.990Z,10.17
2023-01-30T07:54:44.666Z,15.10
2023-01-30T07:57:16.513Z,10.13
2023-01-30T07:59:48.248Z,12.93
2023-01-30T08:02:19.978Z,13.07
2023-01-30T08:04:51.858Z,16.50
2023-01-30T08:07:23.627Z,11.13
2023-01-30T08:09:55.433Z,12.07
2023-01-30T08:12:27.688Z,13.30
2023-01-30T08:14:59.591Z,12.30
2023-01-30T08:17:31.243Z,15.93
2023-01-30T08:20:04.679Z,16.10
2023-01-30T08:22:36.462Z,14.70
2023-01-30T08:25:08.359Z,13.53
2023-01-30T08:27:40.173Z,16.35
2023-01-30T08:30:13.393Z,17.00
2023-01-30T08:32:45.115Z,17.40
2023-01-30T08:35:16.995Z,11.60
2023-01-30T08:37:48.840Z,12.50
2023-01-30T08:40:20.959Z,16.40
2023-01-30T08:42:52.864Z,12.43
2023-01-30T08:45:24.634Z,12.87
2023-01-30T08:48:00.914Z,14.93
2023-01-30T08:50:33.603Z,12.93
2023-01-30T08:53:10.005Z,17.53
2023-01-30T08:55:43.599Z,13.07
2023-01-30T08:58:15.356Z,13.73
2023-01-30T09:00:48.733Z,15.50
2023-01-30T09:03:20.535Z,16.83
2023-01-30T09:05:56.182Z,13.37
2023-01-30T09:08:27.935Z,12.33
2023-01-30T09:11:01.587Z,10.53
2023-01-30T09:13:35.007Z,14.67
2023-01-30T09:16:07.116Z,12.63
2023-01-30T09:18:44.097Z,14.50
2023-01-30T09:21:15.975Z,13.23
2023-01-30T09:23:47.805Z,15.17
2023-01-30T09:26:19.511Z,13.10
2023-01-30T09:28:51.281Z,14.47
2023-01-30T09:31:23.188Z,11.07
2023-01-30T09:33:54.925Z,11.33
2023-01-30T09:36:26.677Z,9.33
2023-01-30T09:38:58.343Z,12.00
2023-01-30T09:41:45.004Z,12.43
2023-01-30T09:44:40.966Z,9.53
2023-01-30T09:47:16.839Z,10.10
2023-01-30T09:50:12.894Z,11.97
2023-01-30T09:53:00.433Z,6.53
2023-01-30T09:55:37.332Z,7.30
2023-01-30T09:58:19.242Z,8.73
2023-01-30T10:00:56.879Z,7.50
2023-01-30T10:03:39.717Z,8.70
2023-01-30T10:06:14.472Z,12.47
2023-01-30T10:09:04.749Z,9.20
2023-01-30T10:11:59.717Z,9.00
2023-01-30T10:14:59.125Z,18.53
2023-01-30T10:18:08.166Z,18.70
2023-01-30T10:20:59.159Z,9.47
2023-01-30T10:23:52.780Z,10.20
2023-01-30T10:26:27.052Z,7.70
2023-01-30T10:29:16.044Z,8.83
2023-01-30T10:32:08.055Z,7.47
2023-01-30T10:34:43.007Z,5.93
2023-01-30T10:37:35.653Z,5.80
2023-01-30T10:40:28.911Z,6.13
2023-01-30T10:43:18.588Z,8.20
2023-01-30T10:46:10.595Z,4.90
2023-01-30T10:48:55.299Z,6.40
2023-01-30T10:51:38.471Z,6.73
2023-01-30T10:54:20.294Z,6.47
2023-01-30T10:57:21.452Z,6.50
2023-01-30T11:00:14.886Z,6.20
2023-01-30T11:03:09.726Z,5.87
2023-01-30T11:06:07.626Z,9.23
2023-01-30T11:08:39.356Z,5.10
2023-01-30T11:11:30.007Z,10.10
2023-01-30T11:14:11.011Z,10.13
2023-01-30T11:16:48.403Z,9.57
2023-01-30T11:19:25.769Z,7.47
2023-01-30T11:22:04.064Z,8.00
2023-01-30T11:24:40.345Z,9.53
2023-01-30T11:27:27.614Z,6.70
2023-01-30T11:30:20.458Z,6.40
2023-01-30T11:33:15.019Z,6.47
2023-01-30T11:36:27.001Z,6.43
2023-01-30T11:39:23.072Z,6.17
2023-01-30T11:41:57.600Z,9.30
2023-01-30T11:44:35.134Z,6.97
2023-01-30T11:47:18.083Z,7.20
2023-01-30T11:49:59.098Z,7.70
2023-01-30T11:52:46.797Z,6.43
2023-01-30T11:55:21.039Z,6.63
2023-01-30T11:57:58.589Z,5.43
2023-01-30T12:00:49.552Z,6.80
2023-01-30T12:03:25.654Z,6.17
2023-01-30T12:05:58.853Z,5.90
2023-01-30T12:08:42.187Z,6.20
2023-01-30T12:11:28.010Z,7.43
2023-01-30T12:14:13.580Z,6.13
2023-01-30T12:16:58.590Z,6.23
2023-01-30T12:19:45.402Z,7.43
2023-01-30T12:22:34.514Z,7.47
2023-01-30T12:25:29.322Z,6.00
2023-01-30T12:28:25.892Z,7.43
2023-01-30T12:31:10.753Z,6.70
2023-01-30T12:33:42.449Z,9.90
2023-01-30T12:36:40.882Z,7.57
2023-01-30T12:39:18.604Z,5.80
2023-01-30T12:41:53.118Z,9.90
2023-01-30T12:45:02.784Z,8.73
2023-01-30T12:47:50.511Z,6.77
2023-01-30T12:50:44.884Z,7.00
2023-01-30T12:53:38.487Z,8.87
2023-01-30T12:56:34.237Z,8.10
2023-01-30T12:59:25.451Z,7.13
2023-01-30T13:02:27.443Z,7.77
2023-01-30T13:05:23.901Z,7.40
2023-01-30T13:08:21.408Z,15.23
2023-01-30T13:11:08.628Z,9.60
2023-01-30T13:14:04.969Z,7.70
2023-01-30T13:17:06.838Z,6.93
2023-01-30T13:19:51.375Z,7.63
2023-01-30T13:22:40.823Z,8.13
2023-01-30T13:25:25.719Z,9.40
2023-01-30T13:28:06.447Z,11.10
2023-01-30T13:30:40.063Z,7.93
2023-01-30T13:33:15.995Z,7.07
2023-01-30T13:35:54.396Z,7.90
2023-01-30T13:38:28.831Z,9.97
2023-01-30T13:41:02.395Z,14.87
2023-01-30T13:43:41.814Z,10.63
2023-01-30T13:46:20.395Z,8.63
2023-01-30T13:49:20.247Z,9.90
2023-01-30T13:52:07.289Z,11.80
2023-01-30T13:55:21.439Z,8.70
2023-01-30T13:58:01.026Z,10.45
2023-01-30T14:00:34.929Z,9.60
2023-01-30T14:03:06.669Z,8.90
2023-01-30T14:06:00.808Z,11.30
2023-01-30T14:08:53.417Z,9.73
2023-01-30T14:11:34.245Z,11.30
2023-01-30T14:14:25.231Z,8.87
2023-01-30T14:17:08.514Z,9.30
2023-01-30T14:19:46.565Z,13.07
2023-01-30T14:22:24.903Z,12.90
2023-01-30T14:25:30.560Z,9.90
2023-01-30T14:28:05.186Z,14.07
2023-01-30T14:30:54.051Z,9.63
2023-01-30T14:33:34.467Z,12.57
2023-01-30T14:36:06.268Z,7.47
2023-01-30T14:38:40.334Z,11.37
2023-01-30T14:41:26.125Z,12.37
2023-01-30T14:43:57.912Z,12.97
2023-01-30T14:46:29.571Z,10.47
2023-01-30T14:49:26.997Z,15.43
2023-01-30T14:51:59.221Z,13.83
2023-01-30T14:54:41.834Z,12.60
2023-01-30T14:57:24.244Z,9.93
2023-01-30T15:00:14.863Z,12.50
2023-01-30T15:02:52.433Z,10.87
2023-01-30T15:05:45.316Z,9.93
2023-01-30T15:08:24.755Z,11.90
2023-01-30T15:10:56.450Z,11.73
2023-01-30T15:13:49.285Z,11.13
2023-01-30T15:17:08.192Z,12.10
2023-01-30T15:19:49.304Z,15.70
2023-01-30T15:22:55.094Z,10.77
2023-01-30T15:25:45.259Z,9.13
2023-01-30T15:28:40.261Z,6.37
2023-01-30T15:31:16.235Z,8.50
2023-01-30T15:33:53.040Z,7.20
2023-01-30T15:36:31.903Z,12.90
2023-01-30T15:39:05.453Z,7.77
2023-01-30T15:41:41.787Z,8.33
2023-01-30T15:44:14.365Z,7.40
2023-01-30T15:46:55.215Z,6.97
2023-01-30T15:49:46.410Z,8.60
2023-01-30T15:52:20.424Z,6.70
2023-01-30T15:54:56.252Z,7.07
2023-01-30T15:57:35.985Z,6.77
2023-01-30T16:00:11.395Z,9.93
2023-01-30T16:02:44.231Z,9.37
2023-01-30T16:05:24.196Z,10.23
2023-01-30T16:07:58.971Z,11.17
2023-01-30T16:10:31.104Z,9.23
2023-01-30T16:13:04.059Z,11.87
2023-01-30T16:15:42.360Z,8.53
2023-01-30T16:18:24.531Z,8.37
2023-01-30T16:21:02.767Z,7.87
2023-01-30T16:23:42.736Z,8.60
2023-01-30T16:26:17.966Z,10.67
2023-01-30T16:28:51.691Z,11.37
2023-01-30T16:31:26.084Z,6.87
2023-01-30T16:33:58.627Z,7.33
2023-01-30T16:36:37.771Z,6.63
2023-01-30T16:39:30.234Z,14.27
2023-01-30T16:42:23.868Z,7.83
2023-01-30T16:45:21.207Z,9.60
2023-01-30T16:47:53.137Z,9.97
2023-01-30T16:50:26.743Z,8.10
2023-01-30T16:52:58.554Z,8.17
2023-01-30T16:55:30.286Z,6.90
2023-01-30T16:58:04.102Z,9.03
2023-01-30T17:00:38.722Z,7.10
2023-01-30T17:03:24.358Z,8.40
2023-01-30T17:05:56.441Z,8.20
2023-01-30T17:08:31.188Z,9.13
2023-01-30T17:11:03.537Z,8.60
2023-01-30T17:13:42.722Z,8.57
2023-01-30T17:16:23.082Z,6.37
2023-01-30T17:18:59.593Z,7.20
2023-01-30T17:21:42.213Z,8.97
2023-01-30T17:24:16.996Z,10.50
2023-01-30T17:26:52.307Z,12.00
2023-01-30T17:29:41.268Z,7.33
2023-01-30T17:32:15.933Z,9.17
2023-01-30T17:34:47.874Z,7.30
2023-01-30T17:37:23.934Z,6.67
2023-01-30T17:39:55.741Z,9.60
2023-01-30T17:42:27.444Z,8.63
2023-01-30T17:44:59.894Z,6.47
2023-01-30T17:47:31.692Z,6.73
2023-01-30T17:50:04.093Z,9.63
2023-01-30T17:52:35.765Z,8.13
2023-01-30T17:55:09.761Z,7.97
2023-01-30T17:57:44.303Z,8.07
2023-01-30T18:00:19.323Z,10.33
2023-01-30T18:02:51.503Z,7.63
2023-01-30T18:05:23.398Z,8.07
2023-01-30T18:07:55.177Z,7.20
2023-01-30T18:10:27.257Z,11.90
2023-01-30T18:12:59.140Z,7.90
2023-01-30T18:15:30.971Z,16.20
2023-01-30T18:18:02.817Z,10.10
2023-01-30T18:20:34.533Z,25.30
2023-01-30T18:23:06.339Z,15.50
2023-01-30T18:25:38.020Z,10.93
2023-01-30T18:28:12.907Z,9.17
2023-01-30T18:30:44.871Z,8.70
2023-01-30T18:33:16.732Z,8.83
2023-01-30T18:35:48.479Z,9.47
2023-01-30T18:38:20.326Z,11.60
2023-01-30T18:40:52.556Z,9.23
2023-01-30T18:43:25.435Z,7.60
2023-01-30T18:46:05.250Z,7.77
2023-01-30T18:48:38.003Z,12.57
2023-01-30T18:51:14.968Z,13.10
2023-01-30T18:53:48.366Z,11.67
2023-01-30T18:56:25.679Z,10.98
2023-01-30T18:58:59.502Z,9.97
2023-01-30T19:01:42.486Z,9.17
2023-01-30T19:04:14.695Z,9.73
2023-01-30T19:06:46.503Z,12.67
2023-01-30T19:09:19.051Z,11.50
2023-01-30T19:12:09.528Z,10.43
2023-01-30T19:14:41.335Z,8.33
2023-01-30T19:17:14.273Z,8.43
2023-01-30T19:19:46.508Z,8.52
2023-01-30T19:22:18.309Z,13.33
2023-01-30T19:24:50.057Z,8.07
2023-01-30T19:27:22.230Z,7.43
2023-01-30T19:29:54.240Z,8.52
2023-01-30T19:32:26.494Z,10.40
2023-01-30T19:34:58.256Z,7.90
2023-01-30T19:37:29.984Z,7.90
2023-01-30T19:40:03.229Z,9.03
2023-01-30T19:42:37.462Z,11.90
2023-01-30T19:45:10.811Z,7.93
2023-01-30T19:47:42.581Z,8.60
2023-01-30T19:50:14.563Z,8.20
2023-01-30T19:52:47.263Z,9.47
2023-01-30T19:55:20.531Z,10.27
2023-01-30T19:57:52.458Z,10.00
2023-01-30T20:00:24.229Z,13.70
2023-01-30T20:02:57.472Z,8.23
2023-01-30T20:05:29.335Z,9.17
2023-01-30T20:08:01.195Z,12.30
2023-01-30T20:10:33.070Z,12.53
2023-01-30T20:13:04.881Z,11.60
2023-01-30T20:15:39.437Z,10.93
2023-01-30T20:18:11.217Z,9.63
2023-01-30T20:20:42.936Z,10.23
2023-01-30T20:23:14.688Z,12.50
2023-01-30T20:25:48.632Z,10.53
2023-01-30T20:28:20.351Z,11.30
2023-01-30T20:30:52.147Z,10.53
2023-01-30T20:33:24.682Z,13.63
2023-01-30T20:36:01.819Z,10.70
2023-01-30T20:38:34.942Z,12.10
2023-01-30T20:41:09.788Z,13.20
2023-01-30T20:43:44.990Z,10.57
2023-01-30T20:46:19.764Z,11.90
2023-01-30T20:48:54.358Z,12.00
2023-01-30T20:51:37.398Z,10.03
2023-01-30T20:54:10.809Z,15.07
2023-01-30T20:56:45.041Z,9.27
2023-01-30T20:59:24.192Z,12.60
2023-01-30T21:01:56.019Z,8.67
2023-01-30T21:04:27.888Z,9.00
2023-01-30T21:07:00.475Z,11.37
2023-01-30T21:09:32.255Z,10.30
2023-01-30T21:12:04.457Z,10.00
2023-01-30T21:14:36.138Z,14.43
2023-01-30T21:17:07.970Z,11.30
2023-01-30T21:19:41.951Z,13.83
2023-01-30T21:22:15.319Z,14.27
2023-01-30T21:24:47.108Z,12.20
2023-01-30T21:27:20.293Z,12.27
2023-01-30T21:29:52.041Z,11.20
2023-01-30T21:32:23.818Z,13.70
2023-01-30T21:34:55.508Z,11.23
2023-01-30T21:37:46.108Z,13.03
2023-01-30T21:40:36.779Z,13.53
2023-01-30T21:43:15.161Z,13.00
2023-01-30T21:45:46.949Z,12.40
2023-01-30T21:48:18.664Z,17.40
2023-01-30T21:50:50.344Z,14.47
2023-01-30T21:53:22.113Z,15.13
2023-01-30T21:55:53.929Z,9.73
2023-01-30T21:58:25.976Z,14.53
2023-01-30T22:01:07.571Z,11.60
2023-01-30T22:03:40.025Z,10.23
2023-01-30T22:06:12.864Z,9.30
2023-01-30T22:08:44.624Z,9.83
2023-01-30T22:11:20.857Z,13.53
2023-01-30T22:13:53.591Z,7.90
2023-01-30T22:16:27.522Z,10.68
2023-01-30T22:19:04.635Z,12.70
2023-01-30T22:21:38.754Z,14.07
2023-01-30T22:24:11.683Z,10.20
2023-01-30T22:26:43.612Z,9.30
2023-01-30T22:29:17.976Z,8.97
2023-01-30T22:31:49.907Z,9.50
2023-01-30T22:34:21.978Z,9.80
2023-01-30T22:36:54.350Z,11.15
2023-01-30T22:39:26.297Z,10.97
2023-01-30T22:41:57.996Z,10.20
2023-01-30T22:44:29.735Z,11.63
2023-01-30T22:47:01.684Z,10.13
2023-01-30T22:49:33.573Z,9.20
2023-01-30T22:52:05.334Z,16.10
2023-01-30T22:54:37.243Z,8.13
2023-01-30T22:57:09.950Z,12.60
2023-01-30T22:59:41.734Z,12.77
2023-01-30T23:02:13.468Z,9.60
2023-01-30T23:04:45.168Z,8.80
2023-01-30T23:07:17.808Z,18.60
2023-01-30T23:09:49.524Z,10.50
2023-01-30T23:12:40.291Z,12.67
2023-01-30T23:15:12.200Z,9.60
2023-01-30T23:18:02.467Z,10.33
2023-01-30T23:20:34.256Z,12.33
2023-01-30T23:23:07.018Z,12.93
2023-01-30T23:25:42.619Z,10.27
2023-01-30T23:28:14.819Z,9.80
2023-01-30T23:30:46.499Z,9.85
2023-01-30T23:33:18.272Z,7.30
2023-01-30T23:35:49.946Z,12.17
2023-01-30T23:38:22.728Z,14.67
2023-01-30T23:41:03.626Z,11.17
2023-01-30T23:43:36.364Z,11.50
2023-01-30T23:46:28.509Z,11.60
2023-01-30T23:49:06.617Z,11.93
2023-01-30T23:51:40.327Z,10.53
2023-01-30T23:54:13.741Z,11.90
2023-01-30T23:56:45.622Z,7.47
2023-01-30T23:59:17.334Z,7.67
